sensor_id;sensor_type;location;lat;lon;timestamp;P1;durP1;ratioP1;P2;durP2;ratioP2
63012;SDS011;62113;45.624;11.700;2023-06-26T00:00:03;6.10;;;4.57;;
63012;SDS011;62113;45.624;11.700;2023-06-26T00:02:30;11.55;;;5.28;;
63012;SDS011;62113;45.624;11.700;2023-06-26T00:04:57;9.82;;;5.00;;
63012;SDS011;62113;45.624;11.700;2023-06-26T00:07:23;13.97;;;4.87;;
63012;SDS011;62113;45.624;11.700;2023-06-26T00:09:48;7.67;;;5.20;;
63012;SDS011;62113;45.624;11.700;2023-06-26T00:12:14;8.55;;;5.20;;
63012;SDS011;62113;45.624;11.700;2023-06-26T00:14:40;8.93;;;5.05;;
63012;SDS011;62113;45.624;11.700;2023-06-26T00:17:05;9.67;;;5.20;;
63012;SDS011;62113;45.624;11.700;2023-06-26T00:19:31;7.20;;;5.47;;
63012;SDS011;62113;45.624;11.700;2023-06-26T00:21:58;10.27;;;5.38;;
63012;SDS011;62113;45.624;11.700;2023-06-26T00:24:23;13.87;;;5.17;;
63012;SDS011;62113;45.624;11.700;2023-06-26T00:26:49;8.80;;;5.17;;
63012;SDS011;62113;45.624;11.700;2023-06-26T00:29:15;7.27;;;5.03;;
63012;SDS011;62113;45.624;11.700;2023-06-26T00:31:41;8.88;;;4.95;;
63012;SDS011;62113;45.624;11.700;2023-06-26T00:34:06;8.70;;;5.25;;
63012;SDS011;62113;45.624;11.700;2023-06-26T00:36:32;6.37;;;4.80;;
63012;SDS011;62113;45.624;11.700;2023-06-26T00:38:58;5.90;;;4.85;;
63012;SDS011;62113;45.624;11.700;2023-06-26T00:41:24;10.18;;;5.32;;
63012;SDS011;62113;45.624;11.700;2023-06-26T00:43:49;11.10;;;5.10;;
63012;SDS011;62113;45.624;11.700;2023-06-26T00:46:15;5.78;;;4.88;;
63012;SDS011;62113;45.624;11.700;2023-06-26T00:48:42;9.02;;;5.13;;
63012;SDS011;62113;45.624;11.700;2023-06-26T00:51:08;11.50;;;6.25;;
63012;SDS011;62113;45.624;11.700;2023-06-26T01:00:52;7.90;;;5.50;;
63012;SDS011;62113;45.624;11.700;2023-06-26T01:03:19;11.98;;;5.35;;
63012;SDS011;62113;45.624;11.700;2023-06-26T01:05:46;7.57;;;5.05;;
63012;SDS011;62113;45.624;11.700;2023-06-26T01:08:14;5.60;;;5.10;;
63012;SDS011;62113;45.624;11.700;2023-06-26T01:10:40;6.07;;;5.13;;
63012;SDS011;62113;45.624;11.700;2023-06-26T01:13:07;7.43;;;5.40;;
63012;SDS011;62113;45.624;11.700;2023-06-26T01:15:33;7.93;;;4.38;;
63012;SDS011;62113;45.624;11.700;2023-06-26T01:17:59;8.32;;;5.50;;
63012;SDS011;62113;45.624;11.700;2023-06-26T01:20:31;6.57;;;5.72;;
63012;SDS011;62113;45.624;11.700;2023-06-26T01:23:05;9.25;;;5.40;;
63012;SDS011;62113;45.624;11.700;2023-06-26T01:28:43;11.45;;;5.45;;
63012;SDS011;62113;45.624;11.700;2023-06-26T01:31:12;10.15;;;6.05;;
63012;SDS011;62113;45.624;11.700;2023-06-26T01:33:40;13.05;;;6.20;;
63012;SDS011;62113;45.624;11.700;2023-06-26T01:36:06;11.77;;;5.95;;
63012;SDS011;62113;45.624;11.700;2023-06-26T01:38:32;9.75;;;5.53;;
63012;SDS011;62113;45.624;11.700;2023-06-26T01:40:59;12.63;;;6.07;;
63012;SDS011;62113;45.624;11.700;2023-06-26T01:43:34;6.82;;;5.90;;
63012;SDS011;62113;45.624;11.700;2023-06-26T01:46:23;8.23;;;5.82;;
63012;SDS011;62113;45.624;11.700;2023-06-26T01:49:03;12.20;;;5.40;;
63012;SDS011;62113;45.624;11.700;2023-06-26T01:51:41;14.77;;;5.85;;
63012;SDS011;62113;45.624;11.700;2023-06-26T01:54:13;13.38;;;6.22;;
63012;SDS011;62113;45.624;11.700;2023-06-26T01:56:43;10.52;;;5.93;;
63012;SDS011;62113;45.624;11.700;2023-06-26T01:59:11;8.98;;;5.93;;
63012;SDS011;62113;45.624;11.700;2023-06-26T02:01:39;8.68;;;5.18;;
63012;SDS011;62113;45.624;11.700;2023-06-26T02:04:04;7.85;;;5.60;;
63012;SDS011;62113;45.624;11.700;2023-06-26T02:06:30;8.60;;;5.70;;
63012;SDS011;62113;45.624;11.700;2023-06-26T02:08:56;6.97;;;5.03;;
63012;SDS011;62113;45.624;11.700;2023-06-26T02:11:21;8.20;;;5.57;;
63012;SDS011;62113;45.624;11.700;2023-06-26T02:13:47;9.43;;;5.35;;
63012;SDS011;62113;45.624;11.700;2023-06-26T02:16:13;7.63;;;5.70;;
63012;SDS011;62113;45.624;11.700;2023-06-26T02:18:39;7.47;;;5.17;;
63012;SDS011;62113;45.624;11.700;2023-06-26T02:21:05;8.03;;;5.80;;
63012;SDS011;62113;45.624;11.700;2023-06-26T02:23:31;10.00;;;5.82;;
63012;SDS011;62113;45.624;11.700;2023-06-26T02:25:57;7.37;;;5.17;;
63012;SDS011;62113;45.624;11.700;2023-06-26T02:28:23;9.03;;;5.67;;
63012;SDS011;62113;45.624;11.700;2023-06-26T02:30:48;17.73;;;6.63;;
63012;SDS011;62113;45.624;11.700;2023-06-26T02:33:14;8.80;;;6.00;;
63012;SDS011;62113;45.624;11.700;2023-06-26T02:35:39;19.47;;;5.70;;
63012;SDS011;62113;45.624;11.700;2023-06-26T02:38:06;11.87;;;5.50;;
63012;SDS011;62113;45.624;11.700;2023-06-26T02:42:58;10.80;;;4.90;;
63012;SDS011;62113;45.624;11.700;2023-06-26T02:45:23;8.60;;;5.00;;
63012;SDS011;62113;45.624;11.700;2023-06-26T02:47:49;7.70;;;4.57;;
63012;SDS011;62113;45.624;11.700;2023-06-26T02:50:15;5.70;;;4.10;;
63012;SDS011;62113;45.624;11.700;2023-06-26T02:52:40;6.40;;;4.25;;
63012;SDS011;62113;45.624;11.700;2023-06-26T02:55:06;4.72;;;4.30;;
63012;SDS011;62113;45.624;11.700;2023-06-26T02:57:32;4.28;;;3.88;;
63012;SDS011;62113;45.624;11.700;2023-06-26T02:59:57;5.10;;;3.77;;
63012;SDS011;62113;45.624;11.700;2023-06-26T03:02:23;5.57;;;3.50;;
63012;SDS011;62113;45.624;11.700;2023-06-26T03:04:49;6.63;;;4.20;;
63012;SDS011;62113;45.624;11.700;2023-06-26T03:07:14;4.22;;;3.60;;
63012;SDS011;62113;45.624;11.700;2023-06-26T03:09:40;4.18;;;3.58;;
63012;SDS011;62113;45.624;11.700;2023-06-26T03:12:06;6.60;;;3.67;;
63012;SDS011;62113;45.624;11.700;2023-06-26T03:14:33;7.28;;;3.33;;
63012;SDS011;62113;45.624;11.700;2023-06-26T03:16:58;5.70;;;3.92;;
63012;SDS011;62113;45.624;11.700;2023-06-26T03:19:28;5.22;;;3.83;;
63012;SDS011;62113;45.624;11.700;2023-06-26T03:21:53;4.70;;;3.73;;
63012;SDS011;62113;45.624;11.700;2023-06-26T03:24:20;6.03;;;4.20;;
63012;SDS011;62113;45.624;11.700;2023-06-26T03:26:45;6.68;;;3.90;;
63012;SDS011;62113;45.624;11.700;2023-06-26T03:29:11;5.60;;;3.73;;
63012;SDS011;62113;45.624;11.700;2023-06-26T03:31:37;9.03;;;3.73;;
63012;SDS011;62113;45.624;11.700;2023-06-26T03:34:02;5.17;;;3.93;;
63012;SDS011;62113;45.624;11.700;2023-06-26T03:36:28;5.67;;;4.10;;
63012;SDS011;62113;45.624;11.700;2023-06-26T03:38:53;6.20;;;4.07;;
63012;SDS011;62113;45.624;11.700;2023-06-26T03:41:22;5.07;;;4.38;;
63012;SDS011;62113;45.624;11.700;2023-06-26T03:43:48;5.07;;;4.57;;
63012;SDS011;62113;45.624;11.700;2023-06-26T03:46:14;4.22;;;3.72;;
63012;SDS011;62113;45.624;11.700;2023-06-26T03:48:39;8.48;;;4.05;;
63012;SDS011;62113;45.624;11.700;2023-06-26T03:51:06;5.18;;;4.45;;
63012;SDS011;62113;45.624;11.700;2023-06-26T03:53:32;7.05;;;4.15;;
63012;SDS011;62113;45.624;11.700;2023-06-26T03:55:58;5.10;;;3.80;;
63012;SDS011;62113;45.624;11.700;2023-06-26T03:58:24;7.10;;;4.37;;
63012;SDS011;62113;45.624;11.700;2023-06-26T04:00:50;6.82;;;4.30;;
63012;SDS011;62113;45.624;11.700;2023-06-26T04:03:16;5.78;;;3.78;;
63012;SDS011;62113;45.624;11.700;2023-06-26T04:05:42;7.68;;;4.40;;
63012;SDS011;62113;45.624;11.700;2023-06-26T04:08:08;10.38;;;4.47;;
63012;SDS011;62113;45.624;11.700;2023-06-26T04:10:34;8.15;;;4.28;;
63012;SDS011;62113;45.624;11.700;2023-06-26T04:13:01;4.95;;;4.18;;
63012;SDS011;62113;45.624;11.700;2023-06-26T04:15:27;6.63;;;4.40;;
63012;SDS011;62113;45.624;11.700;2023-06-26T04:17:52;9.67;;;4.13;;
63012;SDS011;62113;45.624;11.700;2023-06-26T04:20:18;8.80;;;4.37;;
63012;SDS011;62113;45.624;11.700;2023-06-26T04:22:43;8.20;;;4.40;;
63012;SDS011;62113;45.624;11.700;2023-06-26T04:25:09;6.37;;;4.10;;
63012;SDS011;62113;45.624;11.700;2023-06-26T04:27:36;5.50;;;4.70;;
63012;SDS011;62113;45.624;11.700;2023-06-26T04:30:02;10.02;;;4.25;;
63012;SDS011;62113;45.624;11.700;2023-06-26T04:32:28;8.68;;;4.10;;
63012;SDS011;62113;45.624;11.700;2023-06-26T04:34:54;11.80;;;4.50;;
63012;SDS011;62113;45.624;11.700;2023-06-26T04:37:19;11.43;;;5.97;;
63012;SDS011;62113;45.624;11.700;2023-06-26T04:39:45;6.47;;;5.70;;
63012;SDS011;62113;45.624;11.700;2023-06-26T04:42:10;23.70;;;6.80;;
63012;SDS011;62113;45.624;11.700;2023-06-26T04:44:37;14.82;;;6.75;;
63012;SDS011;62113;45.624;11.700;2023-06-26T04:47:03;13.00;;;5.82;;
63012;SDS011;62113;45.624;11.700;2023-06-26T04:49:29;20.95;;;5.65;;
63012;SDS011;62113;45.624;11.700;2023-06-26T04:51:55;8.82;;;5.05;;
63012;SDS011;62113;45.624;11.700;2023-06-26T04:54:21;7.43;;;4.80;;
63012;SDS011;62113;45.624;11.700;2023-06-26T05:06:31;9.98;;;4.32;;
63012;SDS011;62113;45.624;11.700;2023-06-26T05:08:56;5.67;;;4.00;;
63012;SDS011;62113;45.624;11.700;2023-06-26T05:11:22;6.77;;;3.93;;
63012;SDS011;62113;45.624;11.700;2023-06-26T05:13:48;7.50;;;4.05;;
63012;SDS011;62113;45.624;11.700;2023-06-26T05:21:05;6.40;;;3.73;;
63012;SDS011;62113;45.624;11.700;2023-06-26T05:23:31;7.72;;;3.90;;
63012;SDS011;62113;45.624;11.700;2023-06-26T05:25:59;9.75;;;4.03;;
63012;SDS011;62113;45.624;11.700;2023-06-26T05:28:27;5.22;;;3.63;;
63012;SDS011;62113;45.624;11.700;2023-06-26T05:30:55;4.30;;;3.33;;
63012;SDS011;62113;45.624;11.700;2023-06-26T05:33:23;17.95;;;4.20;;
63012;SDS011;62113;45.624;11.700;2023-06-26T05:35:49;5.75;;;3.78;;
63012;SDS011;62113;45.624;11.700;2023-06-26T05:38:17;6.03;;;3.75;;
63012;SDS011;62113;45.624;11.700;2023-06-26T05:40:43;24.90;;;4.72;;
63012;SDS011;62113;45.624;11.700;2023-06-26T05:43:09;9.98;;;4.38;;
63012;SDS011;62113;45.624;11.700;2023-06-26T05:45:34;6.78;;;3.55;;
63012;SDS011;62113;45.624;11.700;2023-06-26T05:48:00;7.77;;;3.67;;
63012;SDS011;62113;45.624;11.700;2023-06-26T05:50:26;5.85;;;3.60;;
63012;SDS011;62113;45.624;11.700;2023-06-26T05:52:53;4.85;;;3.65;;
63012;SDS011;62113;45.624;11.700;2023-06-26T05:55:19;6.80;;;3.20;;
63012;SDS011;62113;45.624;11.700;2023-06-26T05:57:45;8.18;;;3.85;;
63012;SDS011;62113;45.624;11.700;2023-06-26T06:00:12;18.50;;;3.70;;
63012;SDS011;62113;45.624;11.700;2023-06-26T06:02:38;3.92;;;2.80;;
63012;SDS011;62113;45.624;11.700;2023-06-26T06:05:05;8.55;;;3.60;;
63012;SDS011;62113;45.624;11.700;2023-06-26T06:07:31;4.78;;;3.72;;
63012;SDS011;62113;45.624;11.700;2023-06-26T06:09:58;3.72;;;3.40;;
63012;SDS011;62113;45.624;11.700;2023-06-26T06:12:24;3.60;;;2.80;;
63012;SDS011;62113;45.624;11.700;2023-06-26T06:14:49;3.00;;;2.80;;
63012;SDS011;62113;45.624;11.700;2023-06-26T06:17:15;3.10;;;2.90;;
63012;SDS011;62113;45.624;11.700;2023-06-26T06:19:40;7.13;;;2.85;;
63012;SDS011;62113;45.624;11.700;2023-06-26T06:22:06;6.35;;;4.20;;
63012;SDS011;62113;45.624;11.700;2023-06-26T06:24:31;8.18;;;3.20;;
63012;SDS011;62113;45.624;11.700;2023-06-26T06:26:57;6.25;;;2.70;;
63012;SDS011;62113;45.624;11.700;2023-06-26T06:29:23;9.40;;;3.38;;
63012;SDS011;62113;45.624;11.700;2023-06-26T06:31:48;4.78;;;2.97;;
63012;SDS011;62113;45.624;11.700;2023-06-26T06:34:14;12.98;;;3.17;;
63012;SDS011;62113;45.624;11.700;2023-06-26T06:36:39;3.63;;;3.00;;
63012;SDS011;62113;45.624;11.700;2023-06-26T06:39:05;5.32;;;4.03;;
63012;SDS011;62113;45.624;11.700;2023-06-26T06:41:30;8.02;;;3.42;;
63012;SDS011;62113;45.624;11.700;2023-06-26T06:46:22;8.60;;;4.53;;
63012;SDS011;62113;45.624;11.700;2023-06-26T06:48:47;9.00;;;3.30;;
63012;SDS011;62113;45.624;11.700;2023-06-26T06:51:13;7.07;;;3.88;;
63012;SDS011;62113;45.624;11.700;2023-06-26T06:53:39;8.13;;;3.40;;
63012;SDS011;62113;45.624;11.700;2023-06-26T06:56:04;6.22;;;3.22;;
63012;SDS011;62113;45.624;11.700;2023-06-26T06:58:30;7.75;;;3.63;;
63012;SDS011;62113;45.624;11.700;2023-06-26T07:00:58;11.30;;;3.75;;
63012;SDS011;62113;45.624;11.700;2023-06-26T07:03:24;6.72;;;3.60;;
63012;SDS011;62113;45.624;11.700;2023-06-26T07:05:50;5.45;;;3.50;;
63012;SDS011;62113;45.624;11.700;2023-06-26T07:08:16;13.02;;;3.70;;
63012;SDS011;62113;45.624;11.700;2023-06-26T07:10:41;5.25;;;2.95;;
63012;SDS011;62113;45.624;11.700;2023-06-26T07:13:07;6.85;;;3.58;;
63012;SDS011;62113;45.624;11.700;2023-06-26T07:15:33;15.05;;;3.58;;
63012;SDS011;62113;45.624;11.700;2023-06-26T07:17:59;8.25;;;3.35;;
63012;SDS011;62113;45.624;11.700;2023-06-26T07:20:24;6.40;;;3.80;;
63012;SDS011;62113;45.624;11.700;2023-06-26T07:22:50;5.38;;;3.38;;
63012;SDS011;62113;45.624;11.700;2023-06-26T07:25:17;5.80;;;3.30;;
63012;SDS011;62113;45.624;11.700;2023-06-26T07:27:42;6.40;;;3.08;;
63012;SDS011;62113;45.624;11.700;2023-06-26T07:30:09;12.48;;;3.50;;
63012;SDS011;62113;45.624;11.700;2023-06-26T07:32:35;4.00;;;3.42;;
63012;SDS011;62113;45.624;11.700;2023-06-26T07:35:01;13.88;;;3.65;;
63012;SDS011;62113;45.624;11.700;2023-06-26T07:37:27;5.40;;;4.00;;
63012;SDS011;62113;45.624;11.700;2023-06-26T07:39:53;5.85;;;3.90;;
63012;SDS011;62113;45.624;11.700;2023-06-26T07:42:18;7.45;;;3.35;;
63012;SDS011;62113;45.624;11.700;2023-06-26T07:44:44;6.10;;;3.70;;
63012;SDS011;62113;45.624;11.700;2023-06-26T07:47:10;4.53;;;3.70;;
63012;SDS011;62113;45.624;11.700;2023-06-26T07:49:35;4.93;;;3.88;;
63012;SDS011;62113;45.624;11.700;2023-06-26T07:52:02;7.00;;;4.05;;
63012;SDS011;62113;45.624;11.700;2023-06-26T07:54:28;7.65;;;4.10;;
63012;SDS011;62113;45.624;11.700;2023-06-26T07:56:58;5.43;;;3.88;;
63012;SDS011;62113;45.624;11.700;2023-06-26T07:59:25;10.68;;;3.90;;
63012;SDS011;62113;45.624;11.700;2023-06-26T08:01:53;6.50;;;3.58;;
63012;SDS011;62113;45.624;11.700;2023-06-26T08:04:20;3.70;;;3.40;;
63012;SDS011;62113;45.624;11.700;2023-06-26T08:06:51;5.60;;;3.90;;
63012;SDS011;62113;45.624;11.700;2023-06-26T08:09:18;4.20;;;3.80;;
63012;SDS011;62113;45.624;11.700;2023-06-26T08:11:45;7.13;;;3.38;;
63012;SDS011;62113;45.624;11.700;2023-06-26T08:14:11;5.10;;;3.55;;
63012;SDS011;62113;45.624;11.700;2023-06-26T08:16:40;6.53;;;3.50;;
63012;SDS011;62113;45.624;11.700;2023-06-26T08:19:06;4.53;;;3.33;;
63012;SDS011;62113;45.624;11.700;2023-06-26T08:21:32;4.75;;;3.95;;
63012;SDS011;62113;45.624;11.700;2023-06-26T08:23:58;6.93;;;3.92;;
63012;SDS011;62113;45.624;11.700;2023-06-26T08:26:24;4.50;;;4.10;;
63012;SDS011;62113;45.624;11.700;2023-06-26T08:28:49;6.88;;;4.75;;
63012;SDS011;62113;45.624;11.700;2023-06-26T08:31:15;7.80;;;4.32;;
63012;SDS011;62113;45.624;11.700;2023-06-26T08:33:41;4.75;;;4.15;;
63012;SDS011;62113;45.624;11.700;2023-06-26T08:36:07;8.98;;;4.18;;
63012;SDS011;62113;45.624;11.700;2023-06-26T08:38:33;5.90;;;4.10;;
63012;SDS011;62113;45.624;11.700;2023-06-26T08:40:58;6.82;;;4.20;;
63012;SDS011;62113;45.624;11.700;2023-06-26T08:43:25;9.32;;;4.47;;
63012;SDS011;62113;45.624;11.700;2023-06-26T08:45:52;7.57;;;4.45;;
63012;SDS011;62113;45.624;11.700;2023-06-26T08:48:18;10.25;;;4.45;;
63012;SDS011;62113;45.624;11.700;2023-06-26T08:50:45;8.98;;;5.03;;
63012;SDS011;62113;45.624;11.700;2023-06-26T08:53:33;8.90;;;4.50;;
63012;SDS011;62113;45.624;11.700;2023-06-26T08:56:13;10.70;;;5.13;;
63012;SDS011;62113;45.624;11.700;2023-06-26T08:58:42;7.30;;;4.88;;
63012;SDS011;62113;45.624;11.700;2023-06-26T09:01:08;4.80;;;4.30;;
63012;SDS011;62113;45.624;11.700;2023-06-26T09:03:34;8.35;;;5.38;;
63012;SDS011;62113;45.624;11.700;2023-06-26T09:06:00;8.65;;;5.40;;
63012;SDS011;62113;45.624;11.700;2023-06-26T09:08:26;11.23;;;5.30;;
63012;SDS011;62113;45.624;11.700;2023-06-26T09:10:52;6.70;;;5.15;;
63012;SDS011;62113;45.624;11.700;2023-06-26T09:13:18;6.85;;;5.47;;
63012;SDS011;62113;45.624;11.700;2023-06-26T09:15:44;7.47;;;5.03;;
63012;SDS011;62113;45.624;11.700;2023-06-26T09:18:10;7.55;;;5.03;;
63012;SDS011;62113;45.624;11.700;2023-06-26T09:20:39;8.90;;;5.85;;
63012;SDS011;62113;45.624;11.700;2023-06-26T09:23:04;7.07;;;4.65;;
63012;SDS011;62113;45.624;11.700;2023-06-26T09:27:56;14.63;;;5.18;;
63012;SDS011;62113;45.624;11.700;2023-06-26T09:32:48;11.38;;;5.15;;
63012;SDS011;62113;45.624;11.700;2023-06-26T09:35:15;9.30;;;5.30;;
63012;SDS011;62113;45.624;11.700;2023-06-26T09:37:41;12.95;;;6.03;;
63012;SDS011;62113;45.624;11.700;2023-06-26T09:40:08;11.98;;;4.85;;
63012;SDS011;62113;45.624;11.700;2023-06-26T09:42:34;10.93;;;6.55;;
63012;SDS011;62113;45.624;11.700;2023-06-26T09:45:01;13.02;;;5.05;;
63012;SDS011;62113;45.624;11.700;2023-06-26T09:47:29;6.38;;;5.25;;
63012;SDS011;62113;45.624;11.700;2023-06-26T09:49:56;5.78;;;4.60;;
63012;SDS011;62113;45.624;11.700;2023-06-26T09:52:25;8.82;;;5.10;;
63012;SDS011;62113;45.624;11.700;2023-06-26T09:54:52;10.00;;;5.55;;
63012;SDS011;62113;45.624;11.700;2023-06-26T09:57:35;7.60;;;4.93;;
63012;SDS011;62113;45.624;11.700;2023-06-26T10:00:04;11.70;;;4.57;;
63012;SDS011;62113;45.624;11.700;2023-06-26T10:02:31;5.38;;;4.43;;
63012;SDS011;62113;45.624;11.700;2023-06-26T10:04:56;12.75;;;5.68;;
63012;SDS011;62113;45.624;11.700;2023-06-26T10:09:48;10.82;;;4.85;;
63012;SDS011;62113;45.624;11.700;2023-06-26T10:12:18;9.43;;;5.10;;
63012;SDS011;62113;45.624;11.700;2023-06-26T10:14:48;8.98;;;4.57;;
63012;SDS011;62113;45.624;11.700;2023-06-26T10:17:19;5.13;;;4.63;;
63012;SDS011;62113;45.624;11.700;2023-06-26T10:19:48;5.43;;;4.10;;
63012;SDS011;62113;45.624;11.700;2023-06-26T10:22:17;7.95;;;4.18;;
63012;SDS011;62113;45.624;11.700;2023-06-26T10:24:45;5.45;;;4.05;;
63012;SDS011;62113;45.624;11.700;2023-06-26T10:27:18;7.25;;;3.67;;
63012;SDS011;62113;45.624;11.700;2023-06-26T10:29:47;5.15;;;4.10;;
63012;SDS011;62113;45.624;11.700;2023-06-26T10:32:19;6.05;;;3.80;;
63012;SDS011;62113;45.624;11.700;2023-06-26T10:34:46;7.30;;;3.80;;
63012;SDS011;62113;45.624;11.700;2023-06-26T10:37:12;4.30;;;3.83;;
63012;SDS011;62113;45.624;11.700;2023-06-26T10:42:14;7.40;;;4.38;;
63012;SDS011;62113;45.624;11.700;2023-06-26T10:44:44;5.05;;;4.30;;
63012;SDS011;62113;45.624;11.700;2023-06-26T10:47:11;5.65;;;4.15;;
63012;SDS011;62113;45.624;11.700;2023-06-26T10:49:37;7.22;;;4.05;;
63012;SDS011;62113;45.624;11.700;2023-06-26T10:52:07;4.15;;;3.75;;
63012;SDS011;62113;45.624;11.700;2023-06-26T10:54:33;4.10;;;3.70;;
63012;SDS011;62113;45.624;11.700;2023-06-26T10:59:25;8.10;;;4.00;;
63012;SDS011;62113;45.624;11.700;2023-06-26T11:07:19;7.80;;;4.40;;
63012;SDS011;62113;45.624;11.700;2023-06-26T11:15:18;5.90;;;4.47;;
63012;SDS011;62113;45.624;11.700;2023-06-26T11:17:44;8.30;;;4.60;;
63012;SDS011;62113;45.624;11.700;2023-06-26T11:20:11;15.75;;;4.22;;
63012;SDS011;62113;45.624;11.700;2023-06-26T11:22:39;8.25;;;4.65;;
63012;SDS011;62113;45.624;11.700;2023-06-26T11:25:06;7.60;;;4.75;;
63012;SDS011;62113;45.624;11.700;2023-06-26T11:30:04;6.90;;;4.65;;
63012;SDS011;62113;45.624;11.700;2023-06-26T11:32:31;9.80;;;5.35;;
63012;SDS011;62113;45.624;11.700;2023-06-26T11:34:59;7.53;;;4.80;;
63012;SDS011;62113;45.624;11.700;2023-06-26T11:37:25;8.82;;;4.97;;
63012;SDS011;62113;45.624;11.700;2023-06-26T11:42:17;6.65;;;5.32;;
63012;SDS011;62113;45.624;11.700;2023-06-26T11:44:44;6.05;;;4.32;;
63012;SDS011;62113;45.624;11.700;2023-06-26T11:47:17;12.18;;;5.68;;
63012;SDS011;62113;45.624;11.700;2023-06-26T11:49:47;8.27;;;4.72;;
63012;SDS011;62113;45.624;11.700;2023-06-26T11:52:14;4.50;;;4.10;;
63012;SDS011;62113;45.624;11.700;2023-06-26T11:54:41;8.75;;;4.70;;
63012;SDS011;62113;45.624;11.700;2023-06-26T11:57:08;16.48;;;5.60;;
63012;SDS011;62113;45.624;11.700;2023-06-26T11:59:39;6.65;;;4.80;;
63012;SDS011;62113;45.624;11.700;2023-06-26T12:02:09;8.80;;;4.70;;
63012;SDS011;62113;45.624;11.700;2023-06-26T12:04:40;9.23;;;5.32;;
63012;SDS011;62113;45.624;11.700;2023-06-26T12:07:07;11.60;;;4.18;;
63012;SDS011;62113;45.624;11.700;2023-06-26T12:09:45;6.60;;;4.63;;
63012;SDS011;62113;45.624;11.700;2023-06-26T12:12:12;5.25;;;4.30;;
63012;SDS011;62113;45.624;11.700;2023-06-26T12:14:39;12.80;;;4.97;;
63012;SDS011;62113;45.624;11.700;2023-06-26T12:17:08;10.60;;;4.82;;
63012;SDS011;62113;45.624;11.700;2023-06-26T12:19:39;6.32;;;4.30;;
63012;SDS011;62113;45.624;11.700;2023-06-26T12:22:08;8.38;;;4.22;;
63012;SDS011;62113;45.624;11.700;2023-06-26T12:24:38;12.85;;;5.28;;
63012;SDS011;62113;45.624;11.700;2023-06-26T12:27:08;8.40;;;5.22;;
63012;SDS011;62113;45.624;11.700;2023-06-26T12:29:36;4.90;;;4.15;;
63012;SDS011;62113;45.624;11.700;2023-06-26T12:32:03;14.77;;;4.55;;
63012;SDS011;62113;45.624;11.700;2023-06-26T12:34:31;9.20;;;4.50;;
63012;SDS011;62113;45.624;11.700;2023-06-26T12:37:15;7.63;;;4.30;;
63012;SDS011;62113;45.624;11.700;2023-06-26T12:39:45;7.50;;;4.47;;
63012;SDS011;62113;45.624;11.700;2023-06-26T12:42:13;7.00;;;4.50;;
63012;SDS011;62113;45.624;11.700;2023-06-26T12:44:40;4.75;;;4.25;;
63012;SDS011;62113;45.624;11.700;2023-06-26T12:47:05;9.10;;;4.53;;
63012;SDS011;62113;45.624;11.700;2023-06-26T12:49:36;7.95;;;4.22;;
63012;SDS011;62113;45.624;11.700;2023-06-26T12:52:06;6.68;;;4.32;;
63012;SDS011;62113;45.624;11.700;2023-06-26T12:54:33;8.77;;;4.03;;
63012;SDS011;62113;45.624;11.700;2023-06-26T12:56:59;12.70;;;4.63;;
63012;SDS011;62113;45.624;11.700;2023-06-26T12:59:25;6.32;;;4.22;;
63012;SDS011;62113;45.624;11.700;2023-06-26T13:01:51;4.82;;;4.10;;
63012;SDS011;62113;45.624;11.700;2023-06-26T13:04:17;8.80;;;4.40;;
63012;SDS011;62113;45.624;11.700;2023-06-26T13:06:43;6.00;;;4.40;;
63012;SDS011;62113;45.624;11.700;2023-06-26T13:09:09;11.15;;;4.55;;
63012;SDS011;62113;45.624;11.700;2023-06-26T13:11:35;6.10;;;4.13;;
63012;SDS011;62113;45.624;11.700;2023-06-26T13:14:02;5.35;;;4.18;;
63012;SDS011;62113;45.624;11.700;2023-06-26T13:16:28;4.90;;;4.40;;
63012;SDS011;62113;45.624;11.700;2023-06-26T13:18:54;11.02;;;5.10;;
63012;SDS011;62113;45.624;11.700;2023-06-26T13:21:21;6.90;;;4.00;;
63012;SDS011;62113;45.624;11.700;2023-06-26T13:23:46;9.75;;;4.40;;
63012;SDS011;62113;45.624;11.700;2023-06-26T13:28:38;11.80;;;4.45;;
63012;SDS011;62113;45.624;11.700;2023-06-26T13:33:29;4.38;;;3.97;;
63012;SDS011;62113;45.624;11.700;2023-06-26T13:35:55;8.77;;;4.05;;
63012;SDS011;62113;45.624;11.700;2023-06-26T13:38:21;7.05;;;4.35;;
63012;SDS011;62113;45.624;11.700;2023-06-26T13:40:50;5.35;;;4.13;;
63012;SDS011;62113;45.624;11.700;2023-06-26T13:43:16;7.00;;;4.10;;
63012;SDS011;62113;45.624;11.700;2023-06-26T13:45:42;8.38;;;4.82;;
63012;SDS011;62113;45.624;11.700;2023-06-26T13:50:33;11.02;;;4.47;;
63012;SDS011;62113;45.624;11.700;2023-06-26T13:55:24;6.88;;;4.13;;
63012;SDS011;62113;45.624;11.700;2023-06-26T14:00:15;5.75;;;3.55;;
63012;SDS011;62113;45.624;11.700;2023-06-26T14:02:45;5.22;;;3.35;;
63012;SDS011;62113;45.624;11.700;2023-06-26T14:05:11;9.68;;;3.90;;
63012;SDS011;62113;45.624;11.700;2023-06-26T14:07:37;13.70;;;4.70;;
63012;SDS011;62113;45.624;11.700;2023-06-26T14:10:03;5.75;;;4.53;;
63012;SDS011;62113;45.624;11.700;2023-06-26T14:12:30;12.25;;;3.72;;
63012;SDS011;62113;45.624;11.700;2023-06-26T14:14:56;18.55;;;3.58;;
63012;SDS011;62113;45.624;11.700;2023-06-26T14:19:49;6.78;;;3.30;;
63012;SDS011;62113;45.624;11.700;2023-06-26T14:22:15;9.48;;;3.33;;
63012;SDS011;62113;45.624;11.700;2023-06-26T14:27:06;9.23;;;3.35;;
63012;SDS011;62113;45.624;11.700;2023-06-26T14:31:57;4.60;;;3.47;;
63012;SDS011;62113;45.624;11.700;2023-06-26T14:36:48;4.97;;;3.45;;
63012;SDS011;62113;45.624;11.700;2023-06-26T14:41:39;4.90;;;3.47;;
63012;SDS011;62113;45.624;11.700;2023-06-26T14:46:33;11.45;;;3.42;;
63012;SDS011;62113;45.624;11.700;2023-06-26T14:51:24;7.88;;;3.50;;
63012;SDS011;62113;45.624;11.700;2023-06-26T14:53:51;6.85;;;3.67;;
63012;SDS011;62113;45.624;11.700;2023-06-26T14:58:42;3.78;;;3.35;;
63012;SDS011;62113;45.624;11.700;2023-06-26T15:03:33;4.78;;;3.45;;
63012;SDS011;62113;45.624;11.700;2023-06-26T15:08:25;5.50;;;3.63;;
63012;SDS011;62113;45.624;11.700;2023-06-26T15:13:16;6.25;;;4.00;;
63012;SDS011;62113;45.624;11.700;2023-06-26T15:18:07;8.63;;;3.50;;
63012;SDS011;62113;45.624;11.700;2023-06-26T15:22:58;5.10;;;3.67;;
63012;SDS011;62113;45.624;11.700;2023-06-26T15:27:49;10.52;;;3.53;;
63012;SDS011;62113;45.624;11.700;2023-06-26T15:32:41;4.07;;;3.33;;
63012;SDS011;62113;45.624;11.700;2023-06-26T15:37:32;6.65;;;3.63;;
63012;SDS011;62113;45.624;11.700;2023-06-26T15:42:27;7.80;;;3.70;;
63012;SDS011;62113;45.624;11.700;2023-06-26T15:44:55;5.47;;;3.25;;
63012;SDS011;62113;45.624;11.700;2023-06-26T15:49:46;7.88;;;3.40;;
63012;SDS011;62113;45.624;11.700;2023-06-26T15:54:37;6.15;;;3.70;;
63012;SDS011;62113;45.624;11.700;2023-06-26T15:59:29;5.25;;;3.45;;
63012;SDS011;62113;45.624;11.700;2023-06-26T16:06:47;8.13;;;3.47;;
63012;SDS011;62113;45.624;11.700;2023-06-26T16:11:39;9.20;;;3.50;;
63012;SDS011;62113;45.624;11.700;2023-06-26T16:16:30;6.57;;;3.70;;
63012;SDS011;62113;45.624;11.700;2023-06-26T16:21:22;13.23;;;3.88;;
63012;SDS011;62113;45.624;11.700;2023-06-26T16:38:20;6.40;;;3.40;;
63012;SDS011;62113;45.624;11.700;2023-06-26T16:40:46;4.20;;;3.80;;
63012;SDS011;62113;45.624;11.700;2023-06-26T16:45:39;5.13;;;3.40;;
63012;SDS011;62113;45.624;11.700;2023-06-26T16:50:30;16.58;;;3.88;;
63012;SDS011;62113;45.624;11.700;2023-06-26T17:05:04;8.65;;;3.40;;
63012;SDS011;62113;45.624;11.700;2023-06-26T17:09:55;8.68;;;3.92;;
63012;SDS011;62113;45.624;11.700;2023-06-26T17:14:47;5.75;;;3.72;;